Psebay, Russia
Current Conditions -  °F | °C
As of 5:00 AM on Saturday 20 Dec 2014 (Local Time) from URSS Reporting Station
Overcast Overcast  
Wind Chill: 48°   Ceiling: 3300
Heat Index: 48°   Visibility: 4mi
Dew Point: 45°   Wind: 0mph
Humidity: 87%   Direction: NA
Pressure: 30.21"   Gusts: NA
Location:  44.11°N, 40.77°E
Report Text: URSS 200200Z 00000MPS 6000 SCT022 OVC033CB 09/07 Q1023 NOSIGRMK R02/06002MPS MT OBSC QFE766 06290050 02//////
Loading
Personal Weather Stations






























Interactive Weather Map New forecast layout! Learn more

10-Day Weather Forecast

Advertisements
Track Severe Weather on mobile